Somerset, Louisiana
Current Conditions -  °F | °C
As of 2:53 PM on Saturday 20 Dec 2014 (Local Time) from KTVR Reporting Station
Clear Clear  
Wind Chill: 58°   Ceiling: Unl
Heat Index: 58°   Visibility: 10mi
Dew Point: 40°   Wind: 7mph
Humidity: 51%   Direction: NA
Pressure: 30.16"   Gusts: NA
Location:  32.1015°N, 91.2929°W
Report Text: KTVR 202053Z AUTO VRB06KT 10SM CLR 14/04 A3016 RMK AO2 SLP221 T01440044 56019
Loading
Personal Weather Stations






























Interactive Weather Map New forecast layout! Learn more

10-Day Weather Forecast

Advertisements
Track Severe Weather on mobile